MDPP/POP METAR and TAF weather

Enter ICAO airport designator
Station Type Date Time Source
MDPP METAR 2022/12/04 11:00 UTC NOAA

MDPP 041100Z 00000KT 7000 -RA BKN018 19/18 Q1013


Station Type Date Time Source
MDPP Decoded METAR 2022/12/04 11:00 UTC NOAA

Puerto Plata International, Dominican Republic (MDPP) 19-45N 070-33W
Dec 04, 2022 - 06:00 AM EST / 2022.12.04 1100 UTC
Wind: Calm:0
Visibility: 4 mile(s):0
Sky conditions: mostly cloudy
Weather: light rain
Temperature: 66 F (19 C)
Dew Point: 64 F (18 C)
Relative Humidity: 93%
Pressure (altimeter): 29.91 in. Hg (1013 hPa)
ob: MDPP 041100Z 00000KT 7000 -RA BKN018 19/18 Q1013
cycle: 11

Station Type Date Time Source
MDPP TAF 2022/12/04 12:17 UTC NOAA

TAF MDPP 041000Z 0412/0512 00000KT 9999 SCT018 PROB30 0412/0418 6000 TSRA BKN018
BECMG 0415/0417 10012KT

Example: see airport list